Accueil
METAR-TAF:

METAR-TAF

Aéroports :

Ankara Etimesgut, Turquie

latitude: 39-57N, longitude: 032-41E, altitude: 799 m

METAR: absent

Heure: 02:29 (23:29 UTC)

Prévision

Le bulletin a été fait il y a 3 heures et 49 minutes, à 19:40 UTC
Prévision valable du 21 à 21 UTC au 22 à 06 UTC
Vent 2 kt de direction variable
Visibilité 10 km ou plus
Nuages épars à une hauteur de 4000 ft
Nuages épars à une hauteur de 10000 ft

TAF: LTAD 211940Z 2121/2206 VRB02KT 9999 SCT040 SCT100

Observations et prévisions météorologiques de plus de 4000 aéroports (messages METAR et TAF).

Les stations disponibles sont représentées par des disques jaunes et rouges sur la carte.

Passer la souris dessus pour voir le nom de la station.

Cliquer dessus pour voir les observations et prévisions météorologiques.

Pour changer de carte: cliquez sur les boutons verts avec une croix noire pour zoomer, sur le bouton vert avec un tiret pour effectuer un zoom arrière, ou sur les flèches vertes pour les cartes adjacentes.


METAR-TAF: